createdAt,value
2023-02-19T00:00:23.999Z,8.00
2023-02-19T00:02:56.096Z,8.52
2023-02-19T00:05:26.232Z,9.38
2023-02-19T00:07:56.075Z,9.60
2023-02-19T00:10:25.891Z,7.47
2023-02-19T00:12:56.182Z,10.30
2023-02-19T00:15:28.616Z,10.40
2023-02-19T00:17:58.446Z,11.77
2023-02-19T00:20:28.547Z,8.15
2023-02-19T00:22:58.390Z,9.75
2023-02-19T00:25:28.301Z,8.35
2023-02-19T00:27:58.181Z,9.95
2023-02-19T00:30:30.657Z,10.20
2023-02-19T00:33:00.534Z,10.02
2023-02-19T00:35:30.385Z,8.55
2023-02-19T00:38:00.222Z,9.15
2023-02-19T00:40:30.343Z,11.10
2023-02-19T00:43:00.279Z,8.25
2023-02-19T00:45:34.992Z,7.32
2023-02-19T00:50:34.538Z,7.43
2023-02-19T00:53:04.425Z,13.25
2023-02-19T00:55:34.255Z,7.65
2023-02-19T00:58:04.129Z,9.45
2023-02-19T01:00:36.561Z,9.98
2023-02-19T01:03:06.636Z,9.02
2023-02-19T01:05:36.469Z,8.15
2023-02-19T01:08:06.659Z,9.73
2023-02-19T01:10:36.528Z,10.27
2023-02-19T01:13:06.396Z,13.25
2023-02-19T01:15:39.394Z,10.23
2023-02-19T01:18:09.454Z,9.30
2023-02-19T01:20:43.903Z,8.95
2023-02-19T01:23:15.585Z,11.13
2023-02-19T01:25:46.033Z,10.52
2023-02-19T01:28:15.948Z,11.25
2023-02-19T01:30:48.427Z,9.13
2023-02-19T01:33:18.534Z,10.73
2023-02-19T01:35:48.398Z,10.98
2023-02-19T01:38:18.268Z,10.68
2023-02-19T01:40:48.094Z,8.98
2023-02-19T01:43:19.101Z,12.90
2023-02-19T01:45:51.527Z,11.73
2023-02-19T01:48:26.578Z,9.73
2023-02-19T01:51:05.427Z,13.82
2023-02-19T01:53:41.898Z,10.38
2023-02-19T01:56:12.626Z,11.32
2023-02-19T01:58:43.776Z,9.70
2023-02-19T02:01:16.445Z,11.40
2023-02-19T02:03:50.543Z,9.02
2023-02-19T02:06:26.418Z,14.10
2023-02-19T02:09:12.617Z,12.82
2023-02-19T02:11:46.685Z,10.82
2023-02-19T02:14:16.851Z,9.27
2023-02-19T02:16:59.496Z,12.98
2023-02-19T02:19:52.799Z,12.32
2023-02-19T02:22:29.449Z,10.88
2023-02-19T02:25:30.590Z,10.45
2023-02-19T02:28:20.019Z,9.40
2023-02-19T02:30:54.960Z,12.73
2023-02-19T02:33:35.538Z,11.48
2023-02-19T02:36:11.555Z,15.13
2023-02-19T02:38:45.085Z,13.18
2023-02-19T02:41:15.748Z,13.00
2023-02-19T02:43:45.662Z,12.32
2023-02-19T02:46:26.306Z,14.63
2023-02-19T02:48:59.698Z,14.50
2023-02-19T02:51:34.903Z,14.70
2023-02-19T02:54:23.035Z,19.38
2023-02-19T02:56:54.402Z,15.75
2023-02-19T02:59:33.252Z,11.90
2023-02-19T03:02:14.491Z,12.65
2023-02-19T03:05:07.764Z,12.32
2023-02-19T03:07:44.238Z,13.95
2023-02-19T03:10:20.135Z,14.25
2023-02-19T03:13:05.658Z,13.32
2023-02-19T03:15:57.152Z,12.75
2023-02-19T03:18:44.485Z,12.20
2023-02-19T03:21:15.351Z,12.52
2023-02-19T03:23:59.037Z,13.05
2023-02-19T03:26:29.779Z,16.33
2023-02-19T03:29:13.633Z,15.25
2023-02-19T03:31:46.125Z,17.10
2023-02-19T03:34:26.216Z,14.93
2023-02-19T03:37:06.725Z,16.95
2023-02-19T03:39:44.342Z,20.42
2023-02-19T03:42:26.086Z,15.77
2023-02-19T03:45:14.341Z,20.58
2023-02-19T03:47:53.352Z,17.88
2023-02-19T03:50:31.804Z,16.48
2023-02-19T03:53:09.394Z,13.98
2023-02-19T03:55:47.339Z,10.93
2023-02-19T03:58:23.676Z,11.50
2023-02-19T04:01:01.379Z,15.27
2023-02-19T04:03:38.582Z,15.77
2023-02-19T04:06:17.390Z,11.52
2023-02-19T04:08:52.340Z,9.35
2023-02-19T04:11:24.136Z,10.40
2023-02-19T04:14:01.369Z,18.00
2023-02-19T04:16:32.669Z,12.23
2023-02-19T04:19:09.133Z,15.45
2023-02-19T04:21:43.837Z,15.30
2023-02-19T04:26:46.998Z,14.48
2023-02-19T04:29:16.867Z,13.55
2023-02-19T04:31:46.744Z,10.85
2023-02-19T04:34:16.602Z,14.57
2023-02-19T04:36:49.046Z,13.35
2023-02-19T04:39:18.921Z,13.13
2023-02-19T04:41:48.795Z,12.90
2023-02-19T04:44:18.634Z,13.77
2023-02-19T04:46:48.548Z,10.23
2023-02-19T04:49:18.537Z,13.05
2023-02-19T04:51:51.015Z,12.48
2023-02-19T04:54:20.854Z,10.88
2023-02-19T04:56:50.824Z,10.88
2023-02-19T04:59:20.987Z,13.20
2023-02-19T05:01:50.919Z,12.30
2023-02-19T05:04:20.831Z,10.00
2023-02-19T05:06:53.490Z,14.75
2023-02-19T05:09:23.675Z,10.65
2023-02-19T05:11:53.537Z,12.50
2023-02-19T05:14:23.413Z,11.75
2023-02-19T05:16:53.302Z,14.52
2023-02-19T05:19:23.299Z,9.93
2023-02-19T05:21:55.755Z,13.00
2023-02-19T05:24:27.601Z,12.13
2023-02-19T05:26:57.453Z,12.85
2023-02-19T05:29:27.294Z,11.80
2023-02-19T05:31:57.269Z,9.82
2023-02-19T05:34:27.160Z,8.63
2023-02-19T05:36:59.579Z,7.32
2023-02-19T05:39:29.449Z,8.48
2023-02-19T05:41:59.293Z,9.77
2023-02-19T05:44:29.468Z,7.95
2023-02-19T05:46:59.342Z,10.23
2023-02-19T05:49:29.440Z,13.90
2023-02-19T05:52:01.874Z,8.25
2023-02-19T05:54:32.034Z,8.93
2023-02-19T05:57:01.944Z,7.68
2023-02-19T05:59:31.827Z,8.38
2023-02-19T06:02:01.683Z,10.57
2023-02-19T06:04:31.577Z,9.20
2023-02-19T06:07:04.025Z,10.00
2023-02-19T06:09:33.873Z,7.35
2023-02-19T06:12:03.778Z,10.02
2023-02-19T06:14:33.669Z,15.32
2023-02-19T06:17:03.520Z,9.48
2023-02-19T06:19:33.365Z,10.30
2023-02-19T06:22:05.792Z,9.50
2023-02-19T06:24:37.573Z,9.95
2023-02-19T06:27:09.100Z,9.60
2023-02-19T06:29:39.194Z,9.82
2023-02-19T06:32:09.954Z,11.18
2023-02-19T06:34:40.315Z,9.55
2023-02-19T06:37:12.767Z,11.27
2023-02-19T06:39:43.749Z,9.10
2023-02-19T06:42:13.594Z,8.90
2023-02-19T06:44:43.529Z,8.70
2023-02-19T06:47:13.381Z,11.07
2023-02-19T06:49:43.398Z,11.23
2023-02-19T06:52:15.816Z,9.93
2023-02-19T06:54:45.652Z,15.50
2023-02-19T06:57:15.482Z,14.77
2023-02-19T06:59:45.365Z,10.73
2023-02-19T07:02:15.764Z,13.93
2023-02-19T07:04:45.595Z,12.93
2023-02-19T07:07:18.030Z,12.63
2023-02-19T07:09:47.864Z,11.90
2023-02-19T07:12:17.710Z,11.52
2023-02-19T07:14:48.163Z,12.07
2023-02-19T07:17:18.066Z,11.45
2023-02-19T07:19:47.908Z,11.07
2023-02-19T07:22:20.338Z,9.80
2023-02-19T07:24:50.189Z,13.95
2023-02-19T07:27:20.289Z,10.50
2023-02-19T07:29:50.159Z,8.38
2023-02-19T07:32:19.994Z,11.70
2023-02-19T07:34:49.882Z,9.60
2023-02-19T07:37:22.524Z,13.35
2023-02-19T07:39:52.682Z,13.02
2023-02-19T07:42:22.527Z,10.52
2023-02-19T07:44:52.382Z,11.55
2023-02-19T07:47:22.221Z,12.57
2023-02-19T07:49:53.475Z,9.77
2023-02-19T07:52:26.152Z,11.38
2023-02-19T07:54:56.013Z,13.75
2023-02-19T07:57:25.901Z,11.73
2023-02-19T07:59:56.365Z,13.70
2023-02-19T08:02:38.709Z,15.55
2023-02-19T08:05:10.624Z,13.05
2023-02-19T08:07:43.076Z,12.80
2023-02-19T08:10:25.535Z,12.57
2023-02-19T08:13:21.091Z,13.90
2023-02-19T08:15:52.642Z,11.07
2023-02-19T08:18:25.508Z,15.25
2023-02-19T08:20:55.854Z,8.88
2023-02-19T08:23:29.024Z,11.48
2023-02-19T08:26:02.112Z,15.95
2023-02-19T08:28:32.385Z,12.68
2023-02-19T08:31:04.577Z,10.70
2023-02-19T08:33:34.666Z,11.80
2023-02-19T08:36:07.123Z,10.20
2023-02-19T08:38:40.517Z,11.40
2023-02-19T08:41:13.488Z,11.57
2023-02-19T08:43:44.448Z,12.85
2023-02-19T08:46:15.682Z,13.15
2023-02-19T08:48:45.600Z,15.38
2023-02-19T08:51:15.693Z,11.70
2023-02-19T08:53:48.754Z,14.52
2023-02-19T08:56:20.221Z,13.75
2023-02-19T08:58:50.204Z,11.70
2023-02-19T09:01:21.079Z,12.68
2023-02-19T09:03:51.100Z,11.85
2023-02-19T09:06:23.376Z,11.32
2023-02-19T09:08:55.820Z,11.70
2023-02-19T09:11:25.680Z,11.68
2023-02-19T09:13:55.549Z,10.25
2023-02-19T09:16:25.505Z,13.23
2023-02-19T09:18:55.408Z,11.18
2023-02-19T09:21:25.263Z,11.40
2023-02-19T09:23:57.714Z,10.02
2023-02-19T09:26:27.581Z,11.27
2023-02-19T09:28:57.953Z,15.82
2023-02-19T09:31:27.891Z,11.70
2023-02-19T09:33:57.834Z,11.23
2023-02-19T09:36:27.696Z,15.02
2023-02-19T09:39:00.466Z,9.00
2023-02-19T09:41:34.692Z,20.35
2023-02-19T09:44:08.358Z,14.63
2023-02-19T09:46:43.615Z,8.85
2023-02-19T09:49:18.821Z,13.52
2023-02-19T09:51:54.138Z,11.52
2023-02-19T09:54:30.654Z,11.60
2023-02-19T09:57:04.825Z,17.02
2023-02-19T09:59:44.216Z,12.15
2023-02-19T10:02:18.560Z,12.00
2023-02-19T10:04:51.250Z,8.95
2023-02-19T10:07:23.954Z,13.82
2023-02-19T10:10:01.556Z,10.25
2023-02-19T10:12:35.194Z,8.60
2023-02-19T10:15:14.671Z,7.88
2023-02-19T10:17:44.525Z,9.57
2023-02-19T10:20:18.465Z,6.80
2023-02-19T10:22:48.794Z,8.82
2023-02-19T10:25:21.257Z,8.38
2023-02-19T10:27:51.171Z,10.68
2023-02-19T10:30:26.349Z,6.53
2023-02-19T10:33:06.589Z,6.07
2023-02-19T10:35:41.086Z,10.77
2023-02-19T10:38:11.010Z,12.65
2023-02-19T10:40:48.425Z,8.70
2023-02-19T10:43:31.664Z,8.70
2023-02-19T10:46:02.913Z,10.90
2023-02-19T10:48:35.861Z,7.85
2023-02-19T10:51:10.402Z,9.88
2023-02-19T10:56:26.031Z,8.82
2023-02-19T10:58:56.382Z,12.25
2023-02-19T11:01:28.466Z,11.45
2023-02-19T11:04:18.745Z,12.70
2023-02-19T11:06:49.894Z,8.63
2023-02-19T11:09:30.118Z,9.88
2023-02-19T11:12:04.994Z,10.40
2023-02-19T11:14:36.953Z,6.97
2023-02-19T11:17:08.310Z,10.25
2023-02-19T11:19:41.740Z,10.27
2023-02-19T11:22:34.017Z,7.05
2023-02-19T11:25:09.778Z,8.80
2023-02-19T11:27:58.818Z,11.07
2023-02-19T11:30:40.293Z,9.52
2023-02-19T11:33:32.493Z,11.68
2023-02-19T11:36:21.259Z,9.38
2023-02-19T11:38:51.195Z,5.93
2023-02-19T11:41:35.967Z,8.40
2023-02-19T11:44:25.676Z,6.72
2023-02-19T11:47:08.069Z,5.13
2023-02-19T11:49:47.513Z,6.05
2023-02-19T11:52:31.692Z,7.53
2023-02-19T11:55:17.770Z,8.35
2023-02-19T11:57:50.851Z,9.68
2023-02-19T12:00:33.934Z,8.82
2023-02-19T12:03:34.475Z,7.30
2023-02-19T12:06:22.457Z,6.32
2023-02-19T12:09:33.853Z,7.93
2023-02-19T12:12:24.450Z,8.32
2023-02-19T12:15:25.279Z,7.80
2023-02-19T12:18:25.354Z,6.05
2023-02-19T12:21:09.700Z,7.78
2023-02-19T12:24:09.000Z,8.10
2023-02-19T12:26:48.210Z,8.82
2023-02-19T12:29:40.906Z,7.63
2023-02-19T12:32:41.170Z,7.60
2023-02-19T12:35:49.851Z,4.55
2023-02-19T12:38:26.099Z,8.38
2023-02-19T12:41:17.633Z,14.30
2023-02-19T12:43:56.247Z,5.55
2023-02-19T12:46:33.953Z,9.88
2023-02-19T12:49:14.427Z,7.90
2023-02-19T12:51:55.176Z,8.77
2023-02-19T12:54:29.926Z,10.05
2023-02-19T12:59:39.179Z,6.75
2023-02-19T13:02:19.263Z,6.70
2023-02-19T13:04:58.666Z,4.63
2023-02-19T13:07:36.458Z,7.47
2023-02-19T13:10:21.149Z,5.47
2023-02-19T13:12:54.150Z,8.70
2023-02-19T13:15:37.746Z,7.65
2023-02-19T13:18:16.526Z,6.63
2023-02-19T13:20:48.863Z,7.80
2023-02-19T13:23:40.611Z,3.15
2023-02-19T13:26:41.408Z,5.30
2023-02-19T13:29:28.313Z,6.45
2023-02-19T13:32:28.575Z,6.00
2023-02-19T13:35:19.396Z,7.60
2023-02-19T13:37:49.779Z,9.35
2023-02-19T13:40:33.741Z,7.85
2023-02-19T13:43:07.380Z,4.93
2023-02-19T13:45:41.189Z,8.35
2023-02-19T13:48:29.468Z,6.40
2023-02-19T13:51:47.361Z,9.05
2023-02-19T13:54:28.942Z,4.05
2023-02-19T13:57:31.230Z,9.05
2023-02-19T14:00:02.200Z,7.28
2023-02-19T14:02:37.852Z,7.45
2023-02-19T14:05:12.679Z,6.60
2023-02-19T14:11:02.640Z,5.00
2023-02-19T14:14:06.869Z,9.45
2023-02-19T14:17:01.259Z,9.52
2023-02-19T14:19:59.968Z,9.75
2023-02-19T14:23:12.577Z,3.90
2023-02-19T14:25:58.284Z,6.60
2023-02-19T14:28:36.908Z,6.45
2023-02-19T14:31:30.040Z,6.40
2023-02-19T14:34:03.810Z,4.57
2023-02-19T14:36:40.665Z,5.50
2023-02-19T14:39:18.244Z,4.43
2023-02-19T14:41:52.028Z,6.03
2023-02-19T14:44:25.828Z,9.07
2023-02-19T14:47:02.417Z,5.17
2023-02-19T14:49:39.302Z,6.97
2023-02-19T14:52:17.901Z,5.65
2023-02-19T14:54:55.274Z,7.30
2023-02-19T14:57:30.173Z,9.75
2023-02-19T15:02:35.150Z,5.43
2023-02-19T15:05:17.916Z,7.67
2023-02-19T15:07:48.338Z,4.78
2023-02-19T15:10:19.722Z,7.68
2023-02-19T15:12:53.939Z,5.28
2023-02-19T15:15:28.270Z,7.32
2023-02-19T15:18:02.490Z,5.28
2023-02-19T15:20:35.807Z,9.50
2023-02-19T15:23:09.520Z,5.25
2023-02-19T15:25:41.437Z,5.03
2023-02-19T15:28:32.665Z,5.13
2023-02-19T15:31:14.355Z,4.75
2023-02-19T15:33:53.034Z,6.70
2023-02-19T15:36:30.244Z,7.47
2023-02-19T15:39:03.607Z,5.60
2023-02-19T15:41:37.602Z,4.82
2023-02-19T15:44:39.479Z,8.48
2023-02-19T15:47:19.363Z,37.92
2023-02-19T15:50:03.585Z,21.02
2023-02-19T15:52:43.922Z,10.90
2023-02-19T15:55:33.711Z,5.80
2023-02-19T15:58:10.385Z,9.38
2023-02-19T16:00:46.222Z,3.42
2023-02-19T16:03:21.654Z,4.85
2023-02-19T16:06:04.985Z,4.13
2023-02-19T16:08:36.595Z,6.72
2023-02-19T16:11:09.808Z,6.20
2023-02-19T16:13:39.909Z,5.40
2023-02-19T16:16:18.519Z,5.65
2023-02-19T16:18:50.934Z,6.05
2023-02-19T16:21:25.868Z,9.02
2023-02-19T16:24:03.792Z,6.90
2023-02-19T16:26:42.562Z,5.50
2023-02-19T16:29:22.393Z,7.32
2023-02-19T16:31:55.000Z,5.40
2023-02-19T16:34:36.306Z,8.77
2023-02-19T16:37:41.257Z,6.97
2023-02-19T16:41:16.440Z,11.80
2023-02-19T16:43:46.832Z,10.35
2023-02-19T16:46:16.787Z,8.80
2023-02-19T16:48:46.845Z,8.48
2023-02-19T16:51:26.230Z,11.43
2023-02-19T16:53:58.670Z,10.38
2023-02-19T16:56:28.698Z,9.80
2023-02-19T16:58:58.546Z,7.47
2023-02-19T17:01:30.006Z,7.35
2023-02-19T17:04:03.610Z,13.20
2023-02-19T17:06:34.836Z,11.07
2023-02-19T17:09:08.496Z,11.40
2023-02-19T17:11:39.669Z,9.80
2023-02-19T17:14:09.589Z,29.88
2023-02-19T17:16:40.567Z,23.75
2023-02-19T17:19:15.744Z,26.20
2023-02-19T17:21:46.640Z,17.23
2023-02-19T17:24:19.121Z,12.10
2023-02-19T17:26:48.964Z,14.18
2023-02-19T17:29:19.977Z,10.07
2023-02-19T17:31:50.007Z,12.23
2023-02-19T17:34:19.957Z,14.00
2023-02-19T17:36:52.080Z,13.68
2023-02-19T17:39:24.738Z,13.85
2023-02-19T17:41:54.949Z,14.40
2023-02-19T17:44:24.824Z,19.92
2023-02-19T17:46:54.674Z,36.40
2023-02-19T17:49:24.569Z,33.05
2023-02-19T17:51:54.441Z,30.73
2023-02-19T17:54:26.871Z,32.28
2023-02-19T17:56:56.741Z,34.42
2023-02-19T17:59:26.610Z,30.30
2023-02-19T18:01:56.468Z,31.48
2023-02-19T18:04:26.319Z,31.45
2023-02-19T18:06:56.263Z,36.53
2023-02-19T18:09:28.701Z,30.60
2023-02-19T18:11:58.567Z,29.08
2023-02-19T18:14:28.406Z,35.92
2023-02-19T18:16:58.323Z,34.97
2023-02-19T18:19:28.484Z,19.60
2023-02-19T18:21:58.319Z,17.02
2023-02-19T18:24:30.862Z,20.98
2023-02-19T18:27:00.717Z,19.60
2023-02-19T18:29:34.985Z,23.05
2023-02-19T18:32:05.021Z,34.78
2023-02-19T18:34:34.906Z,78.95
2023-02-19T18:37:04.849Z,96.30
2023-02-19T18:39:37.434Z,55.83
2023-02-19T18:42:08.006Z,41.92
2023-02-19T18:44:38.053Z,46.38
2023-02-19T18:47:08.731Z,38.78
2023-02-19T18:49:39.151Z,26.15
2023-02-19T18:52:09.389Z,30.90
2023-02-19T18:54:43.279Z,41.80
2023-02-19T18:57:13.141Z,21.17
2023-02-19T18:59:43.543Z,16.88
2023-02-19T19:02:15.146Z,15.57
2023-02-19T19:04:46.471Z,20.45
2023-02-19T19:07:18.939Z,24.85
2023-02-19T19:09:52.829Z,18.75
2023-02-19T19:12:22.829Z,13.30
2023-02-19T19:14:52.852Z,16.88
2023-02-19T19:17:22.736Z,17.10
2023-02-19T19:19:52.627Z,22.90
2023-02-19T19:22:24.285Z,26.05
2023-02-19T19:24:56.722Z,27.20
2023-02-19T19:27:26.583Z,21.85
2023-02-19T19:29:56.450Z,27.48
2023-02-19T19:32:26.321Z,24.75
2023-02-19T19:34:57.768Z,22.30
2023-02-19T19:37:29.225Z,16.70
2023-02-19T19:40:03.910Z,17.38
2023-02-19T19:45:03.640Z,16.20
2023-02-19T19:47:33.523Z,14.40
2023-02-19T19:50:03.645Z,15.95
2023-02-19T19:52:33.519Z,15.73
2023-02-19T19:55:06.018Z,18.35
2023-02-19T19:57:35.906Z,13.55
2023-02-19T20:00:07.290Z,11.05
2023-02-19T20:02:37.200Z,12.98
2023-02-19T20:05:07.885Z,15.80
2023-02-19T20:07:37.832Z,11.73
2023-02-19T20:10:13.131Z,16.15
2023-02-19T20:12:43.812Z,17.42
2023-02-19T20:15:14.679Z,12.48
2023-02-19T20:17:44.526Z,12.25
2023-02-19T20:20:15.197Z,15.85
2023-02-19T20:22:45.056Z,47.58
2023-02-19T20:25:18.394Z,87.20
2023-02-19T20:27:50.818Z,37.72
2023-02-19T20:30:23.051Z,18.02
2023-02-19T20:32:53.554Z,16.27
2023-02-19T20:35:26.500Z,14.65
2023-02-19T20:37:56.466Z,14.80
2023-02-19T20:40:30.605Z,14.45
2023-02-19T20:43:01.383Z,17.60
2023-02-19T20:45:31.573Z,13.32
2023-02-19T20:48:01.436Z,14.43
2023-02-19T20:50:31.341Z,12.93
2023-02-19T20:53:01.470Z,14.65
2023-02-19T20:55:33.874Z,15.45
2023-02-19T20:58:03.762Z,18.70
2023-02-19T21:00:33.636Z,13.70
2023-02-19T21:03:03.788Z,13.55
2023-02-19T21:05:33.694Z,11.98
2023-02-19T21:08:03.574Z,15.00
2023-02-19T21:10:36.010Z,16.92
2023-02-19T21:13:05.913Z,23.25
2023-02-19T21:15:35.871Z,63.33
2023-02-19T21:18:06.259Z,21.42
2023-02-19T21:20:36.339Z,14.73
2023-02-19T21:23:06.896Z,16.48
2023-02-19T21:25:39.319Z,17.42
2023-02-19T21:28:09.745Z,15.82
2023-02-19T21:30:40.001Z,16.00
2023-02-19T21:33:09.896Z,11.55
2023-02-19T21:35:39.794Z,18.75
2023-02-19T21:38:09.888Z,12.77
2023-02-19T21:40:42.325Z,14.13
2023-02-19T21:43:12.819Z,13.43
2023-02-19T21:45:42.868Z,14.10
2023-02-19T21:48:12.819Z,12.32
2023-02-19T21:50:45.706Z,14.85
2023-02-19T21:53:15.718Z,11.27
2023-02-19T21:55:58.291Z,9.82
2023-02-19T21:58:28.442Z,11.82
2023-02-19T22:01:00.717Z,12.90
2023-02-19T22:03:30.606Z,9.93
2023-02-19T22:06:04.058Z,9.52
2023-02-19T22:08:33.958Z,9.00
2023-02-19T22:11:06.455Z,10.10
2023-02-19T22:13:36.393Z,12.70
2023-02-19T22:16:06.949Z,12.70
2023-02-19T22:18:36.956Z,8.75
2023-02-19T22:21:08.118Z,10.25
2023-02-19T22:23:37.946Z,9.60
2023-02-19T22:26:10.677Z,9.88
2023-02-19T22:28:42.243Z,11.02
2023-02-19T22:31:12.088Z,10.45
2023-02-19T22:33:41.935Z,12.95
2023-02-19T22:36:21.021Z,12.82
2023-02-19T22:38:51.377Z,10.38
2023-02-19T22:41:24.889Z,11.57
2023-02-19T22:43:58.098Z,9.63
2023-02-19T22:46:31.247Z,13.50
2023-02-19T22:49:05.379Z,8.30
2023-02-19T22:51:36.664Z,11.00
2023-02-19T22:54:07.543Z,9.55
2023-02-19T22:56:39.992Z,13.15
2023-02-19T22:59:09.839Z,10.25
2023-02-19T23:01:39.710Z,10.75
2023-02-19T23:04:09.787Z,14.05
2023-02-19T23:06:41.503Z,10.90
2023-02-19T23:09:16.150Z,11.20
2023-02-19T23:11:49.100Z,12.75
2023-02-19T23:14:21.561Z,12.15
2023-02-19T23:16:51.459Z,12.75
2023-02-19T23:19:21.438Z,11.90
2023-02-19T23:21:51.583Z,9.07
2023-02-19T23:24:21.832Z,10.13
2023-02-19T23:26:56.354Z,13.02
2023-02-19T23:29:30.448Z,14.98
2023-02-19T23:32:02.817Z,8.82
2023-02-19T23:34:32.656Z,9.82
2023-02-19T23:37:02.561Z,12.55
2023-02-19T23:39:32.683Z,11.20
2023-02-19T23:42:05.132Z,10.20
2023-02-19T23:44:35.235Z,9.45
2023-02-19T23:47:05.140Z,9.13
2023-02-19T23:49:35.013Z,7.45
2023-02-19T23:52:04.859Z,9.07
2023-02-19T23:54:34.898Z,12.40
2023-02-19T23:57:07.539Z,12.95
2023-02-19T23:59:37.410Z,8.05
